Collyer, KS (67631)

11:06 PM CDT on September 30, 2014 (GMT -0500)
WaKeeney East Side | Change Station
CLOSE
Current Station
Personal Weather Station
Location: WaKeeney, KS
Elevation: 2486 ft
Nearby Weather Stations

Elev 2486 ft 39.03 °N, 99.87 °W | Updated 1 minute ago

Clear
Clear
62.1 °F
Feels Like 62.1 °F
N
0.0
Wind Variable Wind from North
Gusts 0.0 mph

Today
High -- | Low -- °F
--% Chance of Precip.
Yesterday
High -- | Low -- °F
Precip. -- in
7:35 AM 7:24 PM
Waxing Crescent, 43% visible
Pressure 29.68 in
Visibility 6.0 miles
Clouds Clear
Dew Point 54 °F
Humidity 76%
Rainfall -999.00 in
Snow Depth Not available.
UV 0 out of 12
Pollen 1.30 out of 12
Air Quality Not available.
Flu Activity Not available.
METAR KHLC 010353Z AUTO 08005KT 6SM BR CLR 18/17 A2972 RMK AO2 SLP048 T01780167

More Conditions Fewer Conditions

Pressure 29.68 in
Visibility 6.0 miles
Clouds Clear
Dew Point 54 °F
Humidity 76%
Rainfall -999.00 in
Snow Depth Not available.
UV 0 out of 12
Pollen 1.30 out of 12
Air Quality Not available.
Flu Activity Not available.
METAR KHLC 010353Z AUTO 08005KT 6SM BR CLR 18/17 A2972 RMK AO2 SLP048 T01780167

More Conditions Fewer Conditions

10-Day Weather Forecast

Almanac

Astronomy

Sep. 30, 2014 Rise Set
Actual Time 7:35 AM CDT 7:24 PM CDT
Civil Twilight 7:08 AM CDT 7:50 PM CDT
Nautical Twilight 6:37 AM CDT 8:21 PM CDT
Astronomical Twilight 6:06 AM CDT 8:52 PM CDT
Moon 1:42 PM CDT (9/30) 11:58 PM CDT (9/30)
Length of Visible Light 12h 42m
Length of Day
11h 49m
Tomorrow will be 2m 31s shorter.
Waxing Crescent, 43% of the Moon is Illuminated
Oct 1
Waxing Crescent
Oct 1
First Quarter
Oct 8
Full
Oct 15
Last Quarter
Oct 23
New

Today's Extremes

State Highs State Lows

Community

WunderPhotos

Upload Photos

1,757,840 photos uploaded!

Nearby

Snow Depth

Station Depth Elevation
No new snow has been reported.

Earthquake Activity

City Distance Mag. Time & Date
No recent earthquake activity has been reported nearby.
Minimum magnitude displayed is 2.5.

Coastal Water Temperatures

Place Temperature
No Stations Reporting

Nearby Weather Stations